createdAt,value
2023-05-23T00:00:58.680Z,65.70
2023-05-23T00:03:27.580Z,65.77
2023-05-23T00:05:56.799Z,65.71
2023-05-23T00:08:25.654Z,65.70
2023-05-23T00:10:53.825Z,65.39
2023-05-23T00:13:22.303Z,65.46
2023-05-23T00:15:50.881Z,65.86
2023-05-23T00:18:19.259Z,65.85
2023-05-23T00:20:47.446Z,65.67
2023-05-23T00:23:19.566Z,65.81
2023-05-23T00:25:53.426Z,65.81
2023-05-23T00:28:22.634Z,66.20
2023-05-23T00:30:50.806Z,66.45
2023-05-23T00:33:22.480Z,66.43
2023-05-23T00:35:50.936Z,66.50
2023-05-23T00:38:19.727Z,66.53
2023-05-23T00:40:48.583Z,66.48
2023-05-23T00:43:16.757Z,66.53
2023-05-23T00:45:44.929Z,66.69
2023-05-23T00:48:13.305Z,66.85
2023-05-23T00:50:41.902Z,66.80
2023-05-23T00:53:10.064Z,66.91
2023-05-23T00:55:39.715Z,66.90
2023-05-23T00:58:08.042Z,66.92
2023-05-23T01:00:38.806Z,66.93
2023-05-23T01:03:07.063Z,67.06
2023-05-23T01:05:35.327Z,67.05
2023-05-23T01:08:03.602Z,67.09
2023-05-23T01:10:31.870Z,67.05
2023-05-23T01:13:45.712Z,67.09
2023-05-23T01:16:19.223Z,67.07
2023-05-23T01:19:02.615Z,67.04
2023-05-23T01:21:32.260Z,67.09
2023-05-23T01:24:28.268Z,67.23
2023-05-23T01:27:10.428Z,67.38
2023-05-23T01:29:42.671Z,67.43
2023-05-23T01:32:12.558Z,67.41
2023-05-23T01:34:42.055Z,67.44
2023-05-23T01:37:11.368Z,67.53
2023-05-23T01:39:40.140Z,67.19
2023-05-23T01:42:08.933Z,66.83
2023-05-23T01:44:37.619Z,66.84
2023-05-23T01:47:07.733Z,66.81
2023-05-23T01:49:37.441Z,66.83
2023-05-23T01:52:06.280Z,66.97
2023-05-23T01:54:35.686Z,66.95
2023-05-23T01:57:05.477Z,66.98
2023-05-23T01:59:33.862Z,66.99
2023-05-23T02:02:02.322Z,66.94
2023-05-23T02:04:31.392Z,67.16
2023-05-23T02:07:00.280Z,67.24
2023-05-23T02:09:28.658Z,67.43
2023-05-23T02:11:56.840Z,67.42
2023-05-23T02:14:26.741Z,67.64
2023-05-23T02:16:55.193Z,67.41
2023-05-23T02:19:23.672Z,67.38
2023-05-23T02:21:52.590Z,67.29
2023-05-23T02:24:21.170Z,67.22
2023-05-23T02:26:49.346Z,67.35
2023-05-23T02:29:18.541Z,67.60
2023-05-23T02:31:47.372Z,67.32
2023-05-23T02:34:16.012Z,67.31
2023-05-23T02:36:45.518Z,67.28
2023-05-23T02:39:13.789Z,67.41
2023-05-23T02:41:42.164Z,67.54
2023-05-23T02:44:10.450Z,67.57
2023-05-23T02:46:38.944Z,67.55
2023-05-23T02:49:07.401Z,67.70
2023-05-23T02:51:36.394Z,67.98
2023-05-23T02:54:04.668Z,68.15
2023-05-23T02:56:34.374Z,67.83
2023-05-23T02:59:02.757Z,67.69
2023-05-23T03:01:31.864Z,67.57
2023-05-23T03:04:00.302Z,67.57
2023-05-23T03:06:29.219Z,67.58
2023-05-23T03:08:57.496Z,67.75
2023-05-23T03:11:26.184Z,68.12
2023-05-23T03:13:54.865Z,68.22
2023-05-23T03:16:26.488Z,68.07
2023-05-23T03:18:55.563Z,67.96
2023-05-23T03:21:23.886Z,68.24
2023-05-23T03:23:52.159Z,68.39
2023-05-23T03:26:22.283Z,68.26
2023-05-23T03:28:52.506Z,68.26
2023-05-23T03:31:21.144Z,68.34
2023-05-23T03:33:49.973Z,68.49
2023-05-23T03:36:18.861Z,68.70
2023-05-23T03:38:47.132Z,68.89
2023-05-23T03:41:16.132Z,68.93
2023-05-23T03:43:46.042Z,69.06
2023-05-23T03:46:14.845Z,69.33
2023-05-23T03:48:43.918Z,69.43
2023-05-23T03:51:13.939Z,69.50
2023-05-23T03:53:42.622Z,69.54
2023-05-23T03:56:11.300Z,69.39
2023-05-23T03:58:39.677Z,69.10
2023-05-23T04:01:11.445Z,68.95
2023-05-23T04:03:39.760Z,69.10
2023-05-23T04:06:08.708Z,68.91
2023-05-23T04:08:42.299Z,68.72
2023-05-23T04:11:10.795Z,68.56
2023-05-23T04:13:43.050Z,68.47
2023-05-23T04:16:12.657Z,68.20
2023-05-23T04:18:41.234Z,68.22
2023-05-23T04:21:09.936Z,68.23
2023-05-23T04:23:45.257Z,68.14
2023-05-23T04:26:13.530Z,68.12
2023-05-23T04:28:54.506Z,68.14
2023-05-23T04:31:23.180Z,67.80
2023-05-23T04:33:52.080Z,67.22
2023-05-23T04:36:23.947Z,66.26
2023-05-23T04:38:56.097Z,65.50
2023-05-23T04:41:24.673Z,64.56
2023-05-23T04:43:54.804Z,64.00
2023-05-23T04:46:36.648Z,63.54
2023-05-23T04:49:13.365Z,63.14
2023-05-23T04:51:41.946Z,63.45
2023-05-23T04:54:37.662Z,64.02
2023-05-23T04:57:06.992Z,63.51
2023-05-23T04:59:35.753Z,62.77
2023-05-23T05:02:05.983Z,62.08
2023-05-23T05:04:34.346Z,61.27
2023-05-23T05:07:04.666Z,61.05
2023-05-23T05:09:33.148Z,60.79
2023-05-23T05:12:01.569Z,60.39
2023-05-23T05:14:31.235Z,59.24
2023-05-23T05:16:59.685Z,58.41
2023-05-23T05:19:35.087Z,58.84
2023-05-23T05:22:03.428Z,59.42
2023-05-23T05:24:33.135Z,59.48
2023-05-23T05:27:01.613Z,59.62
2023-05-23T05:29:29.890Z,60.45
2023-05-23T05:31:58.370Z,65.58
2023-05-23T05:34:27.174Z,68.60
2023-05-23T05:36:56.660Z,64.74
2023-05-23T05:39:26.779Z,59.92
2023-05-23T05:41:56.486Z,55.82
2023-05-23T05:44:25.179Z,55.26
2023-05-23T05:46:53.661Z,55.73
2023-05-23T05:49:22.640Z,56.55
2023-05-23T05:51:51.948Z,57.50
2023-05-23T05:54:20.221Z,58.11
2023-05-23T05:56:48.699Z,58.14
2023-05-23T05:59:17.817Z,58.79
2023-05-23T06:01:46.186Z,58.41
2023-05-23T06:04:15.426Z,58.45
2023-05-23T06:06:44.253Z,59.40
2023-05-23T06:09:12.741Z,60.06
2023-05-23T06:11:41.359Z,60.54
2023-05-23T06:14:10.249Z,64.30
2023-05-23T06:16:41.156Z,66.16
2023-05-23T06:19:10.170Z,60.68
2023-05-23T06:21:39.477Z,56.62
2023-05-23T06:24:08.635Z,55.71
2023-05-23T06:26:37.933Z,55.50
2023-05-23T06:29:06.148Z,56.11
2023-05-23T06:31:36.254Z,56.45
2023-05-23T06:34:07.075Z,56.64
2023-05-23T06:36:35.428Z,57.27
2023-05-23T06:39:03.708Z,57.13
2023-05-23T06:41:32.076Z,57.23
2023-05-23T06:44:00.352Z,57.65
2023-05-23T06:46:31.906Z,56.59
2023-05-23T06:49:13.880Z,56.23
2023-05-23T06:51:44.176Z,56.25
2023-05-23T06:54:12.960Z,56.84
2023-05-23T06:56:41.393Z,57.35
2023-05-23T06:59:09.875Z,57.14
2023-05-23T07:01:38.957Z,56.61
2023-05-23T07:04:07.385Z,56.96
2023-05-23T07:06:36.640Z,57.19
2023-05-23T07:09:05.348Z,56.62
2023-05-23T07:11:35.577Z,56.49
2023-05-23T07:14:04.123Z,56.96
2023-05-23T07:16:38.187Z,56.94
2023-05-23T07:19:08.190Z,56.50
2023-05-23T07:21:42.468Z,56.44
2023-05-23T07:24:11.359Z,57.62
2023-05-23T07:26:39.730Z,57.21
2023-05-23T07:29:08.222Z,56.97
2023-05-23T07:31:36.556Z,55.89
2023-05-23T07:34:05.166Z,55.19
2023-05-23T07:36:41.181Z,54.66
2023-05-23T07:39:12.265Z,54.59
2023-05-23T07:41:40.541Z,54.29
2023-05-23T07:44:09.944Z,53.96
2023-05-23T07:46:38.735Z,53.39
2023-05-23T07:49:07.410Z,53.03
2023-05-23T07:51:36.503Z,52.99
2023-05-23T07:54:05.186Z,52.66
2023-05-23T07:56:33.892Z,52.29
2023-05-23T07:59:02.557Z,52.29
2023-05-23T08:01:31.587Z,51.75
2023-05-23T08:04:04.240Z,51.08
2023-05-23T08:07:04.410Z,50.28
2023-05-23T08:09:44.707Z,50.51
2023-05-23T08:12:16.057Z,50.44
2023-05-23T08:14:51.274Z,50.90
2023-05-23T08:17:43.855Z,51.33
2023-05-23T08:20:13.130Z,51.82
2023-05-23T08:22:41.511Z,51.74
2023-05-23T08:25:11.015Z,51.89
2023-05-23T08:27:41.458Z,52.19
2023-05-23T08:30:23.539Z,52.74
2023-05-23T08:32:53.583Z,53.67
2023-05-23T08:35:22.654Z,53.72
2023-05-23T08:37:52.627Z,54.26
2023-05-23T08:40:22.688Z,54.43
2023-05-23T08:42:58.982Z,55.49
2023-05-23T08:45:29.683Z,56.45
2023-05-23T08:48:01.338Z,57.27
2023-05-23T08:50:31.034Z,58.76
2023-05-23T08:52:59.981Z,65.85
2023-05-23T08:55:30.164Z,69.02
2023-05-23T08:58:03.808Z,67.70
2023-05-23T09:00:40.482Z,64.53
2023-05-23T09:03:09.473Z,59.26
2023-05-23T09:05:47.863Z,56.06
2023-05-23T09:08:16.968Z,56.81
2023-05-23T09:10:46.210Z,57.11
2023-05-23T09:13:15.717Z,58.01
2023-05-23T09:16:11.272Z,59.09
2023-05-23T09:18:44.727Z,65.68
2023-05-23T09:21:15.253Z,64.94
2023-05-23T09:24:05.986Z,58.96
2023-05-23T09:26:34.537Z,56.82
2023-05-23T09:29:05.997Z,56.21
2023-05-23T09:31:34.884Z,57.11
2023-05-23T09:34:04.382Z,57.35
2023-05-23T09:36:36.850Z,57.57
2023-05-23T09:39:08.505Z,58.21
2023-05-23T09:41:36.882Z,58.16
2023-05-23T09:44:09.148Z,58.77
2023-05-23T09:46:41.048Z,58.91
2023-05-23T09:49:18.203Z,59.45
2023-05-23T09:52:01.533Z,59.93
2023-05-23T09:54:29.997Z,59.86
2023-05-23T09:57:01.595Z,64.94
2023-05-23T09:59:32.605Z,66.84
2023-05-23T10:02:04.147Z,63.92
2023-05-23T10:04:35.477Z,62.76
2023-05-23T10:07:15.959Z,61.88
2023-05-23T10:09:48.728Z,59.85
2023-05-23T10:12:38.713Z,57.94
2023-05-23T10:15:07.966Z,56.13
2023-05-23T10:18:03.159Z,56.17
2023-05-23T10:20:32.358Z,57.53
2023-05-23T10:23:01.828Z,59.51
2023-05-23T10:25:30.100Z,60.08
2023-05-23T10:28:02.454Z,61.75
2023-05-23T10:30:32.474Z,62.82
2023-05-23T10:33:01.466Z,63.16
2023-05-23T10:35:47.736Z,62.75
2023-05-23T10:38:22.180Z,61.88
2023-05-23T10:41:03.559Z,60.91
2023-05-23T10:43:40.340Z,60.87
2023-05-23T10:46:09.721Z,60.48
2023-05-23T10:48:45.378Z,60.38
2023-05-23T10:51:16.428Z,60.44
2023-05-23T10:53:46.652Z,60.03
2023-05-23T10:56:23.732Z,58.52
2023-05-23T10:58:56.154Z,57.89
2023-05-23T11:01:25.499Z,58.47
2023-05-23T11:03:55.658Z,59.13
2023-05-23T11:06:45.592Z,59.20
2023-05-23T11:09:19.629Z,58.87
2023-05-23T11:11:54.184Z,59.21
2023-05-23T11:14:32.229Z,59.57
2023-05-23T11:17:01.575Z,59.79
2023-05-23T11:19:30.250Z,59.83
2023-05-23T11:22:02.887Z,59.89
2023-05-23T11:24:53.086Z,60.36
2023-05-23T11:27:38.170Z,60.78
2023-05-23T11:30:11.246Z,61.47
2023-05-23T11:32:40.491Z,63.07
2023-05-23T11:35:10.793Z,63.40
2023-05-23T11:37:40.182Z,63.03
2023-05-23T11:40:32.017Z,62.97
2023-05-23T11:43:02.496Z,62.48
2023-05-23T11:45:32.297Z,61.21
2023-05-23T11:48:06.811Z,60.31
2023-05-23T11:50:35.529Z,59.12
2023-05-23T11:53:03.816Z,57.62
2023-05-23T11:55:32.078Z,57.10
2023-05-23T11:58:01.068Z,57.61
2023-05-23T12:00:29.956Z,58.12
2023-05-23T12:02:58.259Z,58.21
2023-05-23T12:05:29.063Z,58.69
2023-05-23T12:08:00.311Z,58.87
2023-05-23T12:10:29.562Z,59.00
2023-05-23T12:12:58.503Z,58.63
2023-05-23T12:15:29.745Z,59.07
2023-05-23T12:17:58.353Z,59.25
2023-05-23T12:20:26.914Z,58.96
2023-05-23T12:22:57.451Z,59.03
2023-05-23T12:25:25.911Z,58.24
2023-05-23T12:27:56.547Z,55.99
2023-05-23T12:30:24.722Z,55.85
2023-05-23T12:32:53.217Z,54.57
2023-05-23T12:35:21.780Z,53.70
2023-05-23T12:37:49.952Z,51.61
2023-05-23T12:40:19.456Z,50.80
2023-05-23T12:42:55.267Z,50.38
2023-05-23T12:45:34.276Z,49.60
2023-05-23T12:48:07.639Z,49.52
2023-05-23T12:50:36.514Z,49.77
2023-05-23T12:53:04.795Z,50.87
2023-05-23T12:55:33.163Z,51.58
2023-05-23T12:58:01.439Z,51.89
2023-05-23T13:00:29.817Z,52.42
2023-05-23T13:02:58.075Z,53.47
2023-05-23T13:05:27.805Z,54.23
2023-05-23T13:07:56.078Z,54.71
2023-05-23T13:10:24.353Z,55.46
2023-05-23T13:12:52.636Z,55.81
2023-05-23T13:15:21.207Z,57.00
2023-05-23T13:17:50.320Z,57.45
2023-05-23T13:20:18.985Z,58.06
2023-05-23T13:22:47.468Z,58.96
2023-05-23T13:25:16.058Z,59.70
2023-05-23T13:27:44.324Z,60.64
2023-05-23T13:30:12.902Z,59.75
2023-05-23T13:32:41.194Z,57.23
2023-05-23T13:35:09.864Z,55.89
2023-05-23T13:37:38.236Z,54.56
2023-05-23T13:40:07.358Z,53.55
2023-05-23T13:42:35.709Z,51.37
2023-05-23T13:45:05.242Z,50.80
2023-05-23T13:47:33.623Z,49.57
2023-05-23T13:50:02.907Z,48.38
2023-05-23T13:52:31.366Z,46.88
2023-05-23T13:55:01.727Z,45.21
2023-05-23T13:57:30.179Z,44.50
2023-05-23T13:59:58.554Z,43.94
2023-05-23T14:02:27.697Z,41.96
2023-05-23T14:04:56.358Z,41.63
2023-05-23T14:07:24.607Z,42.55
2023-05-23T14:09:52.874Z,43.29
2023-05-23T14:12:21.368Z,44.52
2023-05-23T14:14:49.627Z,44.80
2023-05-23T14:17:18.114Z,45.58
2023-05-23T14:19:47.267Z,46.11
2023-05-23T14:22:15.690Z,46.25
2023-05-23T14:24:44.263Z,46.07
2023-05-23T14:27:12.533Z,47.02
2023-05-23T14:29:41.022Z,48.31
2023-05-23T14:32:09.251Z,49.41
2023-05-23T14:34:37.670Z,50.21
2023-05-23T14:37:05.951Z,49.93
2023-05-23T14:39:34.116Z,50.52
2023-05-23T14:42:03.127Z,51.46
2023-05-23T14:44:31.494Z,52.60
2023-05-23T14:46:59.756Z,53.96
2023-05-23T14:49:27.932Z,54.63
2023-05-23T14:51:56.622Z,55.32
2023-05-23T14:54:24.892Z,56.40
2023-05-23T14:56:53.634Z,56.77
2023-05-23T14:59:22.156Z,57.21
2023-05-23T15:01:50.667Z,57.46
2023-05-23T15:04:19.132Z,58.58
2023-05-23T15:06:47.631Z,59.17
2023-05-23T15:09:17.051Z,59.50
2023-05-23T15:11:47.012Z,59.70
2023-05-23T15:14:16.625Z,57.98
2023-05-23T15:16:45.650Z,56.29
2023-05-23T15:19:14.030Z,53.77
2023-05-23T15:21:50.432Z,51.97
2023-05-23T15:24:20.058Z,50.03
2023-05-23T15:26:49.169Z,47.31
2023-05-23T15:29:18.449Z,46.01
2023-05-23T15:31:46.705Z,45.30
2023-05-23T15:34:15.114Z,44.83
2023-05-23T15:36:43.377Z,42.88
2023-05-23T15:39:12.850Z,42.65
2023-05-23T15:41:41.259Z,41.32
2023-05-23T15:44:09.654Z,40.90
2023-05-23T15:46:38.357Z,41.20
2023-05-23T15:49:17.486Z,41.26
2023-05-23T15:51:54.498Z,40.03
2023-05-23T15:54:23.005Z,39.81
2023-05-23T15:56:51.283Z,38.92
2023-05-23T15:59:19.455Z,39.25
2023-05-23T16:01:47.768Z,38.71
2023-05-23T16:04:16.530Z,38.85
2023-05-23T16:06:45.101Z,38.11
2023-05-23T16:09:13.285Z,36.98
2023-05-23T16:11:42.185Z,38.56
2023-05-23T16:14:10.438Z,39.88
2023-05-23T16:16:38.796Z,41.23
2023-05-23T16:19:07.759Z,42.73
2023-05-23T16:21:36.897Z,43.59
2023-05-23T16:24:06.021Z,45.40
2023-05-23T16:26:34.472Z,47.48
2023-05-23T16:29:02.748Z,48.60
2023-05-23T16:31:31.187Z,49.73
2023-05-23T16:33:59.808Z,51.11
2023-05-23T16:36:28.701Z,51.72
2023-05-23T16:38:56.973Z,52.24
2023-05-23T16:41:25.459Z,53.27
2023-05-23T16:43:53.829Z,54.04
2023-05-23T16:46:22.542Z,54.47
2023-05-23T16:48:51.097Z,55.64
2023-05-23T16:51:19.371Z,56.42
2023-05-23T16:53:47.963Z,56.88
2023-05-23T16:56:16.536Z,57.54
2023-05-23T16:58:44.708Z,58.36
2023-05-23T17:01:14.099Z,59.21
2023-05-23T17:03:42.709Z,60.04
2023-05-23T17:06:11.171Z,61.44
2023-05-23T17:08:39.544Z,62.89
2023-05-23T17:11:07.921Z,62.98
2023-05-23T17:13:36.501Z,63.34
2023-05-23T17:16:04.841Z,63.03
2023-05-23T17:18:33.269Z,63.68
2023-05-23T17:21:01.836Z,64.78
2023-05-23T17:23:30.213Z,65.55
2023-05-23T17:25:58.383Z,66.07
2023-05-23T17:28:26.862Z,66.37
2023-05-23T17:52:36.259Z,79.28
2023-05-23T17:55:05.364Z,79.78
2023-05-23T17:57:33.885Z,79.36
2023-05-23T18:00:02.567Z,79.37
2023-05-23T18:02:43.265Z,79.46
2023-05-23T18:05:12.941Z,79.35
2023-05-23T18:07:41.322Z,79.15
2023-05-23T18:10:09.897Z,78.92
2023-05-23T18:12:38.380Z,79.01
2023-05-23T18:15:10.542Z,78.96
2023-05-23T18:17:39.173Z,79.15
2023-05-23T18:20:08.530Z,79.35
2023-05-23T18:22:37.209Z,79.60
2023-05-23T18:25:07.134Z,79.67
2023-05-23T18:27:35.706Z,79.36
2023-05-23T18:30:04.697Z,79.74
2023-05-23T18:32:33.190Z,79.27
2023-05-23T18:35:02.009Z,79.27
2023-05-23T18:37:31.173Z,79.17
2023-05-23T18:40:00.766Z,79.12
2023-05-23T18:42:32.317Z,79.11
2023-05-23T18:45:06.022Z,79.24
2023-05-23T18:47:38.100Z,79.09
2023-05-23T18:50:10.603Z,78.99
2023-05-23T18:52:39.348Z,79.01
2023-05-23T18:55:08.756Z,79.22
2023-05-23T18:57:44.589Z,79.39
2023-05-23T19:00:24.340Z,79.43
2023-05-23T19:02:55.655Z,79.54
2023-05-23T19:05:26.929Z,79.36
2023-05-23T19:07:57.868Z,79.51
2023-05-23T19:10:28.806Z,79.38
2023-05-23T19:12:57.698Z,79.25
2023-05-23T19:15:26.291Z,79.29
2023-05-23T19:17:58.039Z,78.99
2023-05-23T19:20:31.842Z,78.99
2023-05-23T19:23:03.695Z,78.87
2023-05-23T19:25:35.348Z,78.72
2023-05-23T19:28:07.251Z,78.91
2023-05-23T19:30:36.300Z,78.79
2023-05-23T19:33:05.684Z,78.84
2023-05-23T19:35:37.665Z,78.89
2023-05-23T19:38:06.762Z,78.92
2023-05-23T19:40:38.702Z,79.11
2023-05-23T19:43:17.748Z,79.20
2023-05-23T19:45:53.627Z,79.01
2023-05-23T19:48:22.178Z,78.93
2023-05-23T19:50:54.040Z,78.97
2023-05-23T19:53:25.694Z,78.88
2023-05-23T19:55:57.864Z,78.75
2023-05-23T19:58:26.682Z,78.70
2023-05-23T20:01:04.660Z,78.61
2023-05-23T20:03:40.366Z,78.57
2023-05-23T20:06:42.462Z,78.46
2023-05-23T20:09:15.959Z,78.48
2023-05-23T20:11:45.053Z,78.37
2023-05-23T20:14:19.416Z,78.13
2023-05-23T20:16:51.074Z,78.21
2023-05-23T20:19:20.272Z,78.13
2023-05-23T20:21:54.282Z,77.99
2023-05-23T20:24:32.348Z,77.90
2023-05-23T20:27:06.034Z,77.73
2023-05-23T20:29:42.915Z,77.81
2023-05-23T20:32:14.363Z,77.80
2023-05-23T20:34:48.679Z,77.86
2023-05-23T20:37:20.951Z,77.89
2023-05-23T20:39:53.012Z,77.98
2023-05-23T20:42:33.081Z,78.02
2023-05-23T20:45:07.217Z,78.04
2023-05-23T20:47:46.513Z,78.19
2023-05-23T20:50:19.270Z,78.08
2023-05-23T20:52:50.639Z,77.95
2023-05-23T20:55:25.364Z,77.79
2023-05-23T20:58:08.710Z,77.84
2023-05-23T21:00:43.496Z,77.74
2023-05-23T21:03:17.793Z,77.52
2023-05-23T21:05:52.050Z,77.46
2023-05-23T21:08:24.212Z,77.47
2023-05-23T21:10:56.261Z,77.34
2023-05-23T21:13:28.132Z,77.33
2023-05-23T21:16:06.338Z,77.37
2023-05-23T21:18:35.129Z,77.22
2023-05-23T21:21:03.914Z,77.36
2023-05-23T21:23:37.819Z,77.13
2023-05-23T21:26:11.420Z,77.27
2023-05-23T21:28:40.429Z,77.26
2023-05-23T21:31:14.671Z,77.46
2023-05-23T21:33:48.737Z,77.38
2023-05-23T21:36:19.674Z,77.44
2023-05-23T21:38:54.094Z,77.68
2023-05-23T21:41:27.795Z,77.75
2023-05-23T21:44:02.377Z,77.87
2023-05-23T21:46:37.435Z,77.94
2023-05-23T21:49:09.321Z,77.99
2023-05-23T21:51:42.307Z,78.21
2023-05-23T21:54:16.066Z,78.41
2023-05-23T21:56:57.724Z,78.44
2023-05-23T21:59:29.650Z,78.54
2023-05-23T22:02:01.547Z,78.62
2023-05-23T22:04:35.742Z,78.79
2023-05-23T22:07:07.381Z,78.64
2023-05-23T22:09:39.131Z,78.67
2023-05-23T22:12:08.377Z,78.86
2023-05-23T22:14:39.775Z,78.82
2023-05-23T22:17:11.339Z,78.66
2023-05-23T22:19:40.545Z,78.84
2023-05-23T22:22:12.224Z,78.60
2023-05-23T22:24:41.073Z,78.15
2023-05-23T22:27:12.006Z,77.73
2023-05-23T22:29:45.805Z,77.31
2023-05-23T22:32:14.500Z,76.94
2023-05-23T22:34:43.282Z,76.96
2023-05-23T22:37:12.066Z,77.01
2023-05-23T22:39:43.514Z,76.85
2023-05-23T22:42:15.066Z,76.94
2023-05-23T22:44:43.543Z,77.02
2023-05-23T22:47:13.956Z,77.40
2023-05-23T22:49:45.953Z,77.54
2023-05-23T22:52:14.617Z,77.32
2023-05-23T22:54:46.581Z,76.96
2023-05-23T22:57:17.314Z,77.14
2023-05-23T22:59:49.373Z,77.17
2023-05-23T23:02:21.079Z,77.10
2023-05-23T23:04:49.920Z,77.19
2023-05-23T23:07:18.917Z,77.53
2023-05-23T23:09:49.952Z,77.74
2023-05-23T23:12:21.604Z,77.68
2023-05-23T23:14:53.303Z,77.62
2023-05-23T23:17:22.259Z,77.49
2023-05-23T23:19:53.517Z,77.54
2023-05-23T23:22:22.281Z,77.59
2023-05-23T23:24:53.946Z,77.71
2023-05-23T23:27:26.811Z,77.75
2023-05-23T23:29:58.471Z,77.67
2023-05-23T23:32:27.697Z,77.60
2023-05-23T23:34:56.593Z,77.66
2023-05-23T23:37:27.897Z,77.83
2023-05-23T23:39:59.875Z,77.55
2023-05-23T23:42:31.410Z,77.55
2023-05-23T23:45:03.002Z,77.87
2023-05-23T23:47:34.190Z,77.60
2023-05-23T23:50:03.402Z,77.32
2023-05-23T23:52:41.312Z,77.30
2023-05-23T23:55:13.365Z,77.30
2023-05-23T23:57:44.913Z,77.80
